createdAt,value
2023-04-13T00:07:47.586Z,5.80
2023-04-13T00:20:47.600Z,5.30
2023-04-13T00:33:47.602Z,4.90
2023-04-13T00:46:47.673Z,4.90
2023-04-13T00:59:47.627Z,5.15
2023-04-13T01:12:47.598Z,4.90
2023-04-13T01:25:47.646Z,4.40
2023-04-13T01:38:47.613Z,4.40
2023-04-13T01:51:47.647Z,4.10
2023-04-13T02:04:47.692Z,4.30
2023-04-13T02:17:47.747Z,4.50
2023-04-13T02:30:47.674Z,4.20
2023-04-13T02:43:47.712Z,3.90
2023-04-13T02:56:47.709Z,3.80
2023-04-13T03:09:47.687Z,3.90
2023-04-13T03:22:47.737Z,3.85
2023-04-13T03:35:47.729Z,3.80
2023-04-13T03:48:47.734Z,4.40
2023-04-13T04:01:47.803Z,3.50
2023-04-13T04:14:47.806Z,3.50
2023-04-13T04:27:47.787Z,3.40
2023-04-13T04:40:48.107Z,3.35
2023-04-13T04:54:47.795Z,3.25
2023-04-13T05:08:47.830Z,3.30
2023-04-13T05:22:47.852Z,3.10
2023-04-13T05:36:47.868Z,7.30
2023-04-13T05:50:47.858Z,8.20
2023-04-13T06:05:47.857Z,7.80
2023-04-13T06:19:47.860Z,8.50
2023-04-13T06:33:47.888Z,7.70
2023-04-13T06:47:47.968Z,7.40
2023-04-13T07:01:47.943Z,10.00
2023-04-13T07:15:47.977Z,19.80
2023-04-13T07:29:47.969Z,20.20
2023-04-13T07:43:47.962Z,20.80
2023-04-13T07:54:47.976Z,20.70
2023-04-13T08:05:47.958Z,18.70
2023-04-13T08:16:48.095Z,19.40
2023-04-13T08:27:48.035Z,20.80
2023-04-13T08:41:48.020Z,17.15
2023-04-13T08:52:48.000Z,12.20
2023-04-13T09:06:48.025Z,14.90
2023-04-13T09:20:47.988Z,14.20
2023-04-13T09:34:48.000Z,13.90
2023-04-13T09:47:48.055Z,13.00
2023-04-13T10:01:48.099Z,14.10
2023-04-13T10:15:48.071Z,9.30
2023-04-13T10:29:48.061Z,7.90
2023-04-13T10:42:52.167Z,8.00
2023-04-13T10:55:48.103Z,12.00
2023-04-13T11:08:48.682Z,9.30
2023-04-13T11:22:48.117Z,26.05
2023-04-13T11:33:48.101Z,23.40
2023-04-13T11:47:48.198Z,22.70
2023-04-13T12:01:49.904Z,20.90
2023-04-13T12:16:04.810Z,19.60
2023-04-13T12:29:48.181Z,16.90
2023-04-13T12:43:48.213Z,20.40
2023-04-13T12:57:48.222Z,14.10
2023-04-13T13:11:48.212Z,13.80
2023-04-13T13:26:04.364Z,13.20
2023-04-13T13:39:48.203Z,10.60
2023-04-13T13:53:48.239Z,8.80
2023-04-13T14:07:48.218Z,10.30
2023-04-13T14:21:48.194Z,9.10
2023-04-13T14:34:48.226Z,6.70
2023-04-13T14:45:48.219Z,7.90
2023-04-13T14:59:48.264Z,6.00
2023-04-13T15:10:48.338Z,7.40
2023-04-13T15:24:48.290Z,6.00
2023-04-13T15:35:48.284Z,6.00
2023-04-13T15:49:48.319Z,4.40
2023-04-13T16:00:48.290Z,4.70
2023-04-13T16:11:48.284Z,4.45
2023-04-13T16:22:48.316Z,4.00
2023-04-13T16:33:48.320Z,8.40
2023-04-13T16:47:48.352Z,4.50
2023-04-13T17:01:48.385Z,4.45
2023-04-13T17:12:48.354Z,5.10
2023-04-13T17:26:48.359Z,4.50
2023-04-13T17:37:48.388Z,4.70
2023-04-13T17:48:48.391Z,4.20
2023-04-13T17:59:48.404Z,4.50
2023-04-13T18:13:48.373Z,3.90
2023-04-13T18:27:48.438Z,4.40
2023-04-13T18:40:48.671Z,4.55
2023-04-13T18:53:48.651Z,4.90
2023-04-13T19:06:48.511Z,5.30
2023-04-13T19:19:48.538Z,4.50
2023-04-13T19:32:48.557Z,5.10
2023-04-13T19:45:48.564Z,5.40
2023-04-13T19:56:48.479Z,5.80
2023-04-13T20:09:48.483Z,6.30
2023-04-13T20:21:48.504Z,4.40
2023-04-13T20:34:48.502Z,4.90
2023-04-13T20:47:48.521Z,5.40
2023-04-13T21:00:48.561Z,3.60
2023-04-13T21:13:48.527Z,3.50
2023-04-13T21:23:48.497Z,3.25
2023-04-13T21:33:48.520Z,2.90
2023-04-13T21:46:48.542Z,3.40
2023-04-13T21:59:48.530Z,3.10
2023-04-13T22:09:48.536Z,2.80
2023-04-13T22:19:48.585Z,2.80
2023-04-13T22:29:48.627Z,2.40
2023-04-13T22:39:48.758Z,2.20
2023-04-13T22:49:48.604Z,2.35
2023-04-13T22:59:48.611Z,2.20
2023-04-13T23:09:48.615Z,1.90
2023-04-13T23:19:48.627Z,2.10
2023-04-13T23:29:48.637Z,2.00
2023-04-13T23:39:48.640Z,1.95
2023-04-13T23:49:48.700Z,1.60
